sensor_id;sensor_type;location;lat;lon;timestamp;P1;durP1;ratioP1;P2;durP2;ratioP2
3817;SDS011;1924;48.078;11.516;2022-11-14T00:01:35;27.10;;;0.80;;
3817;SDS011;1924;48.078;11.516;2022-11-14T00:04:02;27.20;;;0.80;;
3817;SDS011;1924;48.078;11.516;2022-11-14T00:06:31;27.00;;;0.80;;
3817;SDS011;1924;48.078;11.516;2022-11-14T00:08:57;27.20;;;0.80;;
3817;SDS011;1924;48.078;11.516;2022-11-14T00:11:25;27.10;;;0.80;;
3817;SDS011;1924;48.078;11.516;2022-11-14T00:13:51;27.10;;;0.80;;
3817;SDS011;1924;48.078;11.516;2022-11-14T00:16:18;27.20;;;0.80;;
3817;SDS011;1924;48.078;11.516;2022-11-14T00:18:45;27.10;;;0.80;;
3817;SDS011;1924;48.078;11.516;2022-11-14T00:21:12;27.10;;;0.80;;
3817;SDS011;1924;48.078;11.516;2022-11-14T00:23:40;27.10;;;0.80;;
3817;SDS011;1924;48.078;11.516;2022-11-14T00:26:06;27.13;;;0.80;;
3817;SDS011;1924;48.078;11.516;2022-11-14T00:28:33;27.20;;;0.80;;
3817;SDS011;1924;48.078;11.516;2022-11-14T00:31:00;27.30;;;0.80;;
3817;SDS011;1924;48.078;11.516;2022-11-14T00:33:27;27.20;;;0.80;;
3817;SDS011;1924;48.078;11.516;2022-11-14T00:35:54;27.20;;;0.80;;
3817;SDS011;1924;48.078;11.516;2022-11-14T00:38:21;27.20;;;0.80;;
3817;SDS011;1924;48.078;11.516;2022-11-14T00:40:50;27.20;;;0.80;;
3817;SDS011;1924;48.078;11.516;2022-11-14T00:43:16;27.33;;;0.80;;
3817;SDS011;1924;48.078;11.516;2022-11-14T00:45:43;27.30;;;0.80;;
3817;SDS011;1924;48.078;11.516;2022-11-14T00:48:10;27.00;;;0.80;;
3817;SDS011;1924;48.078;11.516;2022-11-14T00:50:37;27.20;;;0.80;;
3817;SDS011;1924;48.078;11.516;2022-11-14T00:53:04;27.20;;;0.80;;
3817;SDS011;1924;48.078;11.516;2022-11-14T00:55:31;27.20;;;0.80;;
3817;SDS011;1924;48.078;11.516;2022-11-14T00:57:59;27.50;;;0.80;;
3817;SDS011;1924;48.078;11.516;2022-11-14T01:00:25;27.20;;;0.80;;
3817;SDS011;1924;48.078;11.516;2022-11-14T01:02:52;27.20;;;0.80;;
3817;SDS011;1924;48.078;11.516;2022-11-14T01:05:20;27.10;;;0.80;;
3817;SDS011;1924;48.078;11.516;2022-11-14T01:07:47;27.20;;;0.80;;
3817;SDS011;1924;48.078;11.516;2022-11-14T01:10:14;27.20;;;0.80;;
3817;SDS011;1924;48.078;11.516;2022-11-14T01:12:41;27.10;;;0.80;;
3817;SDS011;1924;48.078;11.516;2022-11-14T01:15:09;27.10;;;0.80;;
3817;SDS011;1924;48.078;11.516;2022-11-14T01:17:36;27.10;;;0.80;;
3817;SDS011;1924;48.078;11.516;2022-11-14T01:20:03;27.20;;;0.80;;
3817;SDS011;1924;48.078;11.516;2022-11-14T01:22:31;27.20;;;0.80;;
3817;SDS011;1924;48.078;11.516;2022-11-14T01:24:57;27.20;;;0.80;;
3817;SDS011;1924;48.078;11.516;2022-11-14T01:27:24;27.20;;;0.80;;
3817;SDS011;1924;48.078;11.516;2022-11-14T01:29:51;27.20;;;0.80;;
3817;SDS011;1924;48.078;11.516;2022-11-14T01:32:19;27.10;;;0.80;;
3817;SDS011;1924;48.078;11.516;2022-11-14T01:34:46;27.10;;;0.80;;
3817;SDS011;1924;48.078;11.516;2022-11-14T01:37:12;27.10;;;0.80;;
3817;SDS011;1924;48.078;11.516;2022-11-14T01:39:39;27.30;;;0.80;;
3817;SDS011;1924;48.078;11.516;2022-11-14T01:42:06;27.20;;;0.80;;
3817;SDS011;1924;48.078;11.516;2022-11-14T01:47:19;27.20;;;0.80;;
3817;SDS011;1924;48.078;11.516;2022-11-14T01:49:50;27.20;;;0.80;;
3817;SDS011;1924;48.078;11.516;2022-11-14T01:52:20;27.10;;;0.80;;
3817;SDS011;1924;48.078;11.516;2022-11-14T01:54:50;27.00;;;0.80;;
3817;SDS011;1924;48.078;11.516;2022-11-14T01:57:20;27.10;;;0.80;;
3817;SDS011;1924;48.078;11.516;2022-11-14T01:59:50;27.10;;;0.80;;
3817;SDS011;1924;48.078;11.516;2022-11-14T02:02:21;27.10;;;0.80;;
3817;SDS011;1924;48.078;11.516;2022-11-14T02:04:50;27.30;;;0.80;;
3817;SDS011;1924;48.078;11.516;2022-11-14T02:07:21;27.20;;;0.80;;
3817;SDS011;1924;48.078;11.516;2022-11-14T02:09:51;27.10;;;0.80;;
3817;SDS011;1924;48.078;11.516;2022-11-14T02:12:19;27.10;;;0.80;;
3817;SDS011;1924;48.078;11.516;2022-11-14T02:14:47;27.20;;;0.80;;
3817;SDS011;1924;48.078;11.516;2022-11-14T02:17:17;27.00;;;0.80;;
3817;SDS011;1924;48.078;11.516;2022-11-14T02:19:48;27.10;;;0.80;;
3817;SDS011;1924;48.078;11.516;2022-11-14T02:22:17;27.10;;;0.80;;
3817;SDS011;1924;48.078;11.516;2022-11-14T02:24:44;27.20;;;0.80;;
3817;SDS011;1924;48.078;11.516;2022-11-14T02:27:11;27.10;;;0.80;;
3817;SDS011;1924;48.078;11.516;2022-11-14T02:29:39;26.87;;;0.80;;
3817;SDS011;1924;48.078;11.516;2022-11-14T02:32:06;27.00;;;0.80;;
3817;SDS011;1924;48.078;11.516;2022-11-14T02:34:33;27.10;;;0.80;;
3817;SDS011;1924;48.078;11.516;2022-11-14T02:37:00;27.00;;;0.80;;
3817;SDS011;1924;48.078;11.516;2022-11-14T02:39:28;27.10;;;0.80;;
3817;SDS011;1924;48.078;11.516;2022-11-14T02:41:55;27.10;;;0.80;;
3817;SDS011;1924;48.078;11.516;2022-11-14T02:44:21;26.97;;;0.80;;
3817;SDS011;1924;48.078;11.516;2022-11-14T02:46:48;26.90;;;0.80;;
3817;SDS011;1924;48.078;11.516;2022-11-14T02:49:15;26.80;;;0.80;;
3817;SDS011;1924;48.078;11.516;2022-11-14T02:51:42;27.00;;;0.80;;
3817;SDS011;1924;48.078;11.516;2022-11-14T02:54:08;27.00;;;0.80;;
3817;SDS011;1924;48.078;11.516;2022-11-14T02:56:37;27.00;;;0.80;;
3817;SDS011;1924;48.078;11.516;2022-11-14T02:59:03;27.00;;;0.80;;
3817;SDS011;1924;48.078;11.516;2022-11-14T03:01:30;27.07;;;0.80;;
3817;SDS011;1924;48.078;11.516;2022-11-14T03:03:57;26.97;;;0.80;;
3817;SDS011;1924;48.078;11.516;2022-11-14T03:06:23;27.00;;;0.80;;
3817;SDS011;1924;48.078;11.516;2022-11-14T03:08:50;27.07;;;0.80;;
3817;SDS011;1924;48.078;11.516;2022-11-14T03:11:17;27.00;;;0.80;;
3817;SDS011;1924;48.078;11.516;2022-11-14T03:13:45;27.00;;;0.80;;
3817;SDS011;1924;48.078;11.516;2022-11-14T03:16:12;27.00;;;0.80;;
3817;SDS011;1924;48.078;11.516;2022-11-14T03:18:39;26.90;;;0.80;;
3817;SDS011;1924;48.078;11.516;2022-11-14T03:21:06;27.00;;;0.80;;
3817;SDS011;1924;48.078;11.516;2022-11-14T03:23:34;27.10;;;0.80;;
3817;SDS011;1924;48.078;11.516;2022-11-14T03:26:01;26.97;;;0.80;;
3817;SDS011;1924;48.078;11.516;2022-11-14T03:28:29;27.10;;;0.80;;
3817;SDS011;1924;48.078;11.516;2022-11-14T03:30:57;27.00;;;0.80;;
3817;SDS011;1924;48.078;11.516;2022-11-14T03:33:24;27.00;;;0.80;;
3817;SDS011;1924;48.078;11.516;2022-11-14T03:35:51;26.90;;;0.80;;
3817;SDS011;1924;48.078;11.516;2022-11-14T03:38:18;27.10;;;0.80;;
3817;SDS011;1924;48.078;11.516;2022-11-14T03:40:47;27.00;;;0.80;;
3817;SDS011;1924;48.078;11.516;2022-11-14T03:43:14;26.90;;;0.80;;
3817;SDS011;1924;48.078;11.516;2022-11-14T03:45:40;27.00;;;0.80;;
3817;SDS011;1924;48.078;11.516;2022-11-14T03:48:08;27.00;;;0.80;;
3817;SDS011;1924;48.078;11.516;2022-11-14T03:50:35;27.10;;;0.80;;
3817;SDS011;1924;48.078;11.516;2022-11-14T03:53:02;27.00;;;0.80;;
3817;SDS011;1924;48.078;11.516;2022-11-14T03:55:29;27.10;;;0.80;;
3817;SDS011;1924;48.078;11.516;2022-11-14T03:57:56;26.90;;;0.80;;
3817;SDS011;1924;48.078;11.516;2022-11-14T04:00:22;27.00;;;0.80;;
3817;SDS011;1924;48.078;11.516;2022-11-14T04:02:52;27.00;;;0.80;;
3817;SDS011;1924;48.078;11.516;2022-11-14T04:05:20;27.17;;;0.80;;
3817;SDS011;1924;48.078;11.516;2022-11-14T04:07:48;27.07;;;0.80;;
3817;SDS011;1924;48.078;11.516;2022-11-14T04:10:15;26.90;;;0.80;;
3817;SDS011;1924;48.078;11.516;2022-11-14T04:12:45;27.00;;;0.80;;
3817;SDS011;1924;48.078;11.516;2022-11-14T04:15:12;26.90;;;0.80;;
3817;SDS011;1924;48.078;11.516;2022-11-14T04:17:39;26.90;;;0.80;;
3817;SDS011;1924;48.078;11.516;2022-11-14T04:20:06;27.10;;;0.80;;
3817;SDS011;1924;48.078;11.516;2022-11-14T04:22:35;26.90;;;0.80;;
3817;SDS011;1924;48.078;11.516;2022-11-14T04:25:01;27.00;;;0.80;;
3817;SDS011;1924;48.078;11.516;2022-11-14T04:27:28;26.90;;;0.80;;
3817;SDS011;1924;48.078;11.516;2022-11-14T04:29:55;26.90;;;0.80;;
3817;SDS011;1924;48.078;11.516;2022-11-14T04:32:22;27.10;;;0.80;;
3817;SDS011;1924;48.078;11.516;2022-11-14T04:34:48;26.90;;;0.80;;
3817;SDS011;1924;48.078;11.516;2022-11-14T04:37:15;26.90;;;0.80;;
3817;SDS011;1924;48.078;11.516;2022-11-14T04:39:43;26.90;;;0.80;;
3817;SDS011;1924;48.078;11.516;2022-11-14T04:42:10;26.90;;;0.80;;
3817;SDS011;1924;48.078;11.516;2022-11-14T04:44:36;27.10;;;0.80;;
3817;SDS011;1924;48.078;11.516;2022-11-14T04:47:04;27.00;;;0.80;;
3817;SDS011;1924;48.078;11.516;2022-11-14T05:02:30;26.90;;;0.80;;
3817;SDS011;1924;48.078;11.516;2022-11-14T05:04:57;26.80;;;0.80;;
3817;SDS011;1924;48.078;11.516;2022-11-14T05:07:24;26.70;;;0.80;;
3817;SDS011;1924;48.078;11.516;2022-11-14T05:09:50;26.80;;;0.80;;
3817;SDS011;1924;48.078;11.516;2022-11-14T05:12:17;26.87;;;0.80;;
3817;SDS011;1924;48.078;11.516;2022-11-14T05:14:44;26.80;;;0.80;;
3817;SDS011;1924;48.078;11.516;2022-11-14T05:17:11;26.70;;;0.80;;
3817;SDS011;1924;48.078;11.516;2022-11-14T05:19:39;26.97;;;0.80;;
3817;SDS011;1924;48.078;11.516;2022-11-14T05:22:06;26.60;;;0.80;;
3817;SDS011;1924;48.078;11.516;2022-11-14T05:24:32;26.80;;;0.80;;
3817;SDS011;1924;48.078;11.516;2022-11-14T05:26:59;26.70;;;0.80;;
3817;SDS011;1924;48.078;11.516;2022-11-14T05:29:26;26.87;;;0.80;;
3817;SDS011;1924;48.078;11.516;2022-11-14T05:31:52;26.70;;;0.80;;
3817;SDS011;1924;48.078;11.516;2022-11-14T05:34:19;26.80;;;0.80;;
3817;SDS011;1924;48.078;11.516;2022-11-14T05:36:47;26.90;;;0.80;;
3817;SDS011;1924;48.078;11.516;2022-11-14T05:39:14;26.73;;;0.80;;
3817;SDS011;1924;48.078;11.516;2022-11-14T05:41:41;26.87;;;0.80;;
3817;SDS011;1924;48.078;11.516;2022-11-14T05:44:08;27.00;;;0.80;;
3817;SDS011;1924;48.078;11.516;2022-11-14T05:46:35;26.87;;;0.80;;
3817;SDS011;1924;48.078;11.516;2022-11-14T05:49:02;26.80;;;0.80;;
3817;SDS011;1924;48.078;11.516;2022-11-14T05:51:28;26.70;;;0.80;;
3817;SDS011;1924;48.078;11.516;2022-11-14T05:53:57;26.67;;;0.80;;
3817;SDS011;1924;48.078;11.516;2022-11-14T05:56:23;26.80;;;0.80;;
3817;SDS011;1924;48.078;11.516;2022-11-14T05:58:50;26.60;;;0.80;;
3817;SDS011;1924;48.078;11.516;2022-11-14T06:01:18;26.87;;;0.80;;
3817;SDS011;1924;48.078;11.516;2022-11-14T06:03:46;26.80;;;0.80;;
3817;SDS011;1924;48.078;11.516;2022-11-14T06:06:14;26.70;;;0.80;;
3817;SDS011;1924;48.078;11.516;2022-11-14T06:08:41;26.60;;;0.80;;
3817;SDS011;1924;48.078;11.516;2022-11-14T06:11:10;26.60;;;0.80;;
3817;SDS011;1924;48.078;11.516;2022-11-14T06:13:38;26.70;;;0.80;;
3817;SDS011;1924;48.078;11.516;2022-11-14T06:16:06;26.70;;;0.80;;
3817;SDS011;1924;48.078;11.516;2022-11-14T06:18:35;26.60;;;0.80;;
3817;SDS011;1924;48.078;11.516;2022-11-14T06:21:03;26.80;;;0.80;;
3817;SDS011;1924;48.078;11.516;2022-11-14T06:23:31;26.70;;;0.80;;
3817;SDS011;1924;48.078;11.516;2022-11-14T06:25:58;26.50;;;0.80;;
3817;SDS011;1924;48.078;11.516;2022-11-14T06:28:27;26.60;;;0.80;;
3817;SDS011;1924;48.078;11.516;2022-11-14T06:30:57;26.60;;;0.80;;
3817;SDS011;1924;48.078;11.516;2022-11-14T06:33:25;26.80;;;0.80;;
3817;SDS011;1924;48.078;11.516;2022-11-14T06:35:55;26.70;;;0.80;;
3817;SDS011;1924;48.078;11.516;2022-11-14T06:38:23;26.70;;;0.80;;
3817;SDS011;1924;48.078;11.516;2022-11-14T06:40:50;26.80;;;0.80;;
3817;SDS011;1924;48.078;11.516;2022-11-14T06:43:16;26.70;;;0.80;;
3817;SDS011;1924;48.078;11.516;2022-11-14T06:45:44;26.60;;;0.80;;
3817;SDS011;1924;48.078;11.516;2022-11-14T06:48:11;26.70;;;0.80;;
3817;SDS011;1924;48.078;11.516;2022-11-14T06:50:38;26.60;;;0.80;;
3817;SDS011;1924;48.078;11.516;2022-11-14T06:53:04;26.50;;;0.80;;
3817;SDS011;1924;48.078;11.516;2022-11-14T06:55:31;26.50;;;0.80;;
3817;SDS011;1924;48.078;11.516;2022-11-14T06:57:58;26.60;;;0.80;;
3817;SDS011;1924;48.078;11.516;2022-11-14T07:00:25;26.60;;;0.80;;
3817;SDS011;1924;48.078;11.516;2022-11-14T07:02:53;26.50;;;0.80;;
3817;SDS011;1924;48.078;11.516;2022-11-14T07:05:19;26.57;;;0.80;;
3817;SDS011;1924;48.078;11.516;2022-11-14T07:07:46;26.50;;;0.80;;
3817;SDS011;1924;48.078;11.516;2022-11-14T07:10:14;26.50;;;0.80;;
3817;SDS011;1924;48.078;11.516;2022-11-14T07:12:40;26.60;;;0.80;;
3817;SDS011;1924;48.078;11.516;2022-11-14T07:15:07;26.40;;;0.80;;
3817;SDS011;1924;48.078;11.516;2022-11-14T07:17:35;26.50;;;0.80;;
3817;SDS011;1924;48.078;11.516;2022-11-14T07:20:03;26.50;;;0.80;;
3817;SDS011;1924;48.078;11.516;2022-11-14T07:22:31;26.57;;;0.80;;
3817;SDS011;1924;48.078;11.516;2022-11-14T07:24:58;26.60;;;0.80;;
3817;SDS011;1924;48.078;11.516;2022-11-14T07:27:24;26.50;;;0.80;;
3817;SDS011;1924;48.078;11.516;2022-11-14T07:29:51;26.50;;;0.80;;
3817;SDS011;1924;48.078;11.516;2022-11-14T07:32:18;26.60;;;0.80;;
3817;SDS011;1924;48.078;11.516;2022-11-14T07:34:44;26.70;;;0.80;;
3817;SDS011;1924;48.078;11.516;2022-11-14T07:37:14;26.50;;;0.80;;
3817;SDS011;1924;48.078;11.516;2022-11-14T07:39:41;26.50;;;0.80;;
3817;SDS011;1924;48.078;11.516;2022-11-14T07:42:08;26.60;;;0.80;;
3817;SDS011;1924;48.078;11.516;2022-11-14T07:44:34;26.50;;;0.80;;
3817;SDS011;1924;48.078;11.516;2022-11-14T07:47:01;26.50;;;0.80;;
3817;SDS011;1924;48.078;11.516;2022-11-14T07:49:28;26.70;;;0.80;;
3817;SDS011;1924;48.078;11.516;2022-11-14T07:51:55;26.70;;;0.80;;
3817;SDS011;1924;48.078;11.516;2022-11-14T07:54:23;26.50;;;0.80;;
3817;SDS011;1924;48.078;11.516;2022-11-14T07:56:49;26.60;;;0.80;;
3817;SDS011;1924;48.078;11.516;2022-11-14T07:59:16;26.70;;;0.80;;
3817;SDS011;1924;48.078;11.516;2022-11-14T08:01:43;26.77;;;0.80;;
3817;SDS011;1924;48.078;11.516;2022-11-14T08:04:10;26.70;;;0.80;;
3817;SDS011;1924;48.078;11.516;2022-11-14T08:06:36;26.70;;;0.80;;
3817;SDS011;1924;48.078;11.516;2022-11-14T08:09:03;26.70;;;0.80;;
3817;SDS011;1924;48.078;11.516;2022-11-14T08:11:31;26.70;;;0.80;;
3817;SDS011;1924;48.078;11.516;2022-11-14T08:14:13;26.80;;;0.80;;
3817;SDS011;1924;48.078;11.516;2022-11-14T08:16:40;26.70;;;0.80;;
3817;SDS011;1924;48.078;11.516;2022-11-14T08:19:07;26.80;;;0.80;;
3817;SDS011;1924;48.078;11.516;2022-11-14T08:21:34;26.77;;;0.80;;
3817;SDS011;1924;48.078;11.516;2022-11-14T08:24:01;26.97;;;0.80;;
3817;SDS011;1924;48.078;11.516;2022-11-14T08:26:28;26.80;;;0.80;;
3817;SDS011;1924;48.078;11.516;2022-11-14T08:28:56;26.90;;;0.80;;
3817;SDS011;1924;48.078;11.516;2022-11-14T08:31:23;27.03;;;0.80;;
3817;SDS011;1924;48.078;11.516;2022-11-14T08:33:50;26.90;;;0.80;;
3817;SDS011;1924;48.078;11.516;2022-11-14T08:36:17;27.10;;;0.80;;
3817;SDS011;1924;48.078;11.516;2022-11-14T08:38:55;27.10;;;0.80;;
3817;SDS011;1924;48.078;11.516;2022-11-14T08:41:21;27.00;;;0.80;;
3817;SDS011;1924;48.078;11.516;2022-11-14T08:43:48;27.20;;;0.80;;
3817;SDS011;1924;48.078;11.516;2022-11-14T08:46:15;27.20;;;0.80;;
3817;SDS011;1924;48.078;11.516;2022-11-14T08:48:42;27.10;;;0.80;;
3817;SDS011;1924;48.078;11.516;2022-11-14T08:51:08;27.00;;;0.80;;
3817;SDS011;1924;48.078;11.516;2022-11-14T08:53:35;27.20;;;0.80;;
3817;SDS011;1924;48.078;11.516;2022-11-14T08:56:04;27.10;;;0.80;;
3817;SDS011;1924;48.078;11.516;2022-11-14T08:58:31;27.30;;;0.80;;
3817;SDS011;1924;48.078;11.516;2022-11-14T09:00:59;27.10;;;0.80;;
3817;SDS011;1924;48.078;11.516;2022-11-14T09:03:26;27.20;;;0.80;;
3817;SDS011;1924;48.078;11.516;2022-11-14T09:05:53;27.30;;;0.80;;
3817;SDS011;1924;48.078;11.516;2022-11-14T09:08:20;27.17;;;0.80;;
3817;SDS011;1924;48.078;11.516;2022-11-14T09:10:48;27.20;;;0.80;;
3817;SDS011;1924;48.078;11.516;2022-11-14T09:13:16;27.40;;;0.80;;
3817;SDS011;1924;48.078;11.516;2022-11-14T09:15:43;27.30;;;0.80;;
3817;SDS011;1924;48.078;11.516;2022-11-14T09:18:10;27.60;;;0.80;;
3817;SDS011;1924;48.078;11.516;2022-11-14T09:20:37;27.70;;;0.80;;
3817;SDS011;1924;48.078;11.516;2022-11-14T09:23:04;27.80;;;0.80;;
3817;SDS011;1924;48.078;11.516;2022-11-14T09:25:31;27.70;;;0.80;;
3817;SDS011;1924;48.078;11.516;2022-11-14T09:28:02;27.67;;;0.80;;
3817;SDS011;1924;48.078;11.516;2022-11-14T09:30:31;27.90;;;0.80;;
3817;SDS011;1924;48.078;11.516;2022-11-14T09:32:59;27.90;;;0.80;;
3817;SDS011;1924;48.078;11.516;2022-11-14T09:35:26;27.90;;;0.80;;
3817;SDS011;1924;48.078;11.516;2022-11-14T09:37:58;27.90;;;0.80;;
3817;SDS011;1924;48.078;11.516;2022-11-14T09:40:26;27.90;;;0.80;;
3817;SDS011;1924;48.078;11.516;2022-11-14T09:42:59;27.93;;;0.80;;
3817;SDS011;1924;48.078;11.516;2022-11-14T09:45:39;27.90;;;0.80;;
3817;SDS011;1924;48.078;11.516;2022-11-14T09:48:12;28.10;;;0.80;;
3817;SDS011;1924;48.078;11.516;2022-11-14T09:50:42;28.07;;;0.80;;
3817;SDS011;1924;48.078;11.516;2022-11-14T09:53:14;28.00;;;0.80;;
3817;SDS011;1924;48.078;11.516;2022-11-14T09:55:45;28.07;;;0.80;;
3817;SDS011;1924;48.078;11.516;2022-11-14T09:58:14;28.20;;;0.80;;
3817;SDS011;1924;48.078;11.516;2022-11-14T10:00:48;28.30;;;0.80;;
3817;SDS011;1924;48.078;11.516;2022-11-14T10:03:18;28.30;;;0.80;;
3817;SDS011;1924;48.078;11.516;2022-11-14T10:06:05;28.27;;;0.80;;
3817;SDS011;1924;48.078;11.516;2022-11-14T10:09:01;28.30;;;0.80;;
3817;SDS011;1924;48.078;11.516;2022-11-14T10:11:51;28.50;;;0.80;;
3817;SDS011;1924;48.078;11.516;2022-11-14T10:17:49;28.50;;;0.80;;
3817;SDS011;1924;48.078;11.516;2022-11-14T10:20:25;28.70;;;0.80;;
3817;SDS011;1924;48.078;11.516;2022-11-14T10:23:05;28.57;;;0.80;;
3817;SDS011;1924;48.078;11.516;2022-11-14T10:25:47;28.80;;;0.80;;
3817;SDS011;1924;48.078;11.516;2022-11-14T10:28:24;28.80;;;0.80;;
3817;SDS011;1924;48.078;11.516;2022-11-14T10:31:05;28.80;;;0.80;;
3817;SDS011;1924;48.078;11.516;2022-11-14T10:33:45;28.70;;;0.80;;
3817;SDS011;1924;48.078;11.516;2022-11-14T10:36:20;28.90;;;0.80;;
3817;SDS011;1924;48.078;11.516;2022-11-14T10:38:55;29.00;;;0.80;;
3817;SDS011;1924;48.078;11.516;2022-11-14T10:41:30;29.00;;;0.80;;
3817;SDS011;1924;48.078;11.516;2022-11-14T10:43:58;29.10;;;0.80;;
3817;SDS011;1924;48.078;11.516;2022-11-14T10:46:26;28.97;;;0.80;;
3817;SDS011;1924;48.078;11.516;2022-11-14T10:48:59;29.00;;;0.80;;
3817;SDS011;1924;48.078;11.516;2022-11-14T10:51:28;29.07;;;0.80;;
3817;SDS011;1924;48.078;11.516;2022-11-14T10:54:02;29.10;;;0.80;;
3817;SDS011;1924;48.078;11.516;2022-11-14T10:56:44;29.20;;;0.80;;
3817;SDS011;1924;48.078;11.516;2022-11-14T10:59:11;29.17;;;0.80;;
3817;SDS011;1924;48.078;11.516;2022-11-14T11:01:38;29.20;;;0.80;;
3817;SDS011;1924;48.078;11.516;2022-11-14T11:04:11;28.93;;;0.80;;
3817;SDS011;1924;48.078;11.516;2022-11-14T11:06:47;29.07;;;0.80;;
3817;SDS011;1924;48.078;11.516;2022-11-14T11:09:15;29.00;;;0.80;;
3817;SDS011;1924;48.078;11.516;2022-11-14T11:12:01;29.10;;;0.80;;
3817;SDS011;1924;48.078;11.516;2022-11-14T11:14:29;28.80;;;0.80;;
3817;SDS011;1924;48.078;11.516;2022-11-14T11:17:16;28.97;;;0.80;;
3817;SDS011;1924;48.078;11.516;2022-11-14T11:19:50;28.80;;;0.80;;
3817;SDS011;1924;48.078;11.516;2022-11-14T11:22:30;28.90;;;0.80;;
3817;SDS011;1924;48.078;11.516;2022-11-14T11:25:02;29.00;;;0.80;;
3817;SDS011;1924;48.078;11.516;2022-11-14T11:27:48;29.00;;;0.80;;
3817;SDS011;1924;48.078;11.516;2022-11-14T11:30:29;28.80;;;0.80;;
3817;SDS011;1924;48.078;11.516;2022-11-14T11:32:56;28.70;;;0.80;;
3817;SDS011;1924;48.078;11.516;2022-11-14T11:35:40;28.80;;;0.80;;
3817;SDS011;1924;48.078;11.516;2022-11-14T11:38:08;28.70;;;0.80;;
3817;SDS011;1924;48.078;11.516;2022-11-14T11:40:37;28.80;;;0.80;;
3817;SDS011;1924;48.078;11.516;2022-11-14T11:43:08;28.50;;;0.80;;
3817;SDS011;1924;48.078;11.516;2022-11-14T11:45:40;28.53;;;0.80;;
3817;SDS011;1924;48.078;11.516;2022-11-14T11:48:12;28.60;;;0.80;;
3817;SDS011;1924;48.078;11.516;2022-11-14T11:50:43;28.60;;;0.80;;
3817;SDS011;1924;48.078;11.516;2022-11-14T11:53:11;28.70;;;0.80;;
3817;SDS011;1924;48.078;11.516;2022-11-14T11:55:43;28.70;;;0.80;;
3817;SDS011;1924;48.078;11.516;2022-11-14T11:58:15;28.60;;;0.80;;
3817;SDS011;1924;48.078;11.516;2022-11-14T12:00:49;28.70;;;0.80;;
3817;SDS011;1924;48.078;11.516;2022-11-14T12:03:19;28.60;;;0.80;;
3817;SDS011;1924;48.078;11.516;2022-11-14T12:05:54;28.60;;;0.80;;
3817;SDS011;1924;48.078;11.516;2022-11-14T12:08:31;28.70;;;0.80;;
3817;SDS011;1924;48.078;11.516;2022-11-14T12:11:05;28.50;;;0.80;;
3817;SDS011;1924;48.078;11.516;2022-11-14T12:13:46;28.40;;;0.80;;
3817;SDS011;1924;48.078;11.516;2022-11-14T12:16:39;28.60;;;0.80;;
3817;SDS011;1924;48.078;11.516;2022-11-14T12:19:29;28.30;;;0.80;;
3817;SDS011;1924;48.078;11.516;2022-11-14T12:22:23;28.30;;;0.80;;
3817;SDS011;1924;48.078;11.516;2022-11-14T12:25:17;28.47;;;0.80;;
3817;SDS011;1924;48.078;11.516;2022-11-14T12:28:01;28.40;;;0.80;;
3817;SDS011;1924;48.078;11.516;2022-11-14T12:30:37;28.50;;;0.80;;
3817;SDS011;1924;48.078;11.516;2022-11-14T12:33:07;28.30;;;0.80;;
3817;SDS011;1924;48.078;11.516;2022-11-14T12:35:37;28.40;;;0.80;;
3817;SDS011;1924;48.078;11.516;2022-11-14T12:38:15;28.20;;;0.80;;
3817;SDS011;1924;48.078;11.516;2022-11-14T12:40:48;28.40;;;0.80;;
3817;SDS011;1924;48.078;11.516;2022-11-14T12:46:06;28.30;;;0.80;;
3817;SDS011;1924;48.078;11.516;2022-11-14T12:48:36;28.27;;;0.80;;
3817;SDS011;1924;48.078;11.516;2022-11-14T12:51:04;28.40;;;0.80;;
3817;SDS011;1924;48.078;11.516;2022-11-14T12:53:53;28.40;;;0.80;;
3817;SDS011;1924;48.078;11.516;2022-11-14T12:56:26;28.40;;;0.80;;
3817;SDS011;1924;48.078;11.516;2022-11-14T13:02:08;28.50;;;0.80;;
3817;SDS011;1924;48.078;11.516;2022-11-14T13:04:58;28.50;;;0.80;;
3817;SDS011;1924;48.078;11.516;2022-11-14T13:07:41;28.50;;;0.80;;
3817;SDS011;1924;48.078;11.516;2022-11-14T13:10:22;28.50;;;0.80;;
3817;SDS011;1924;48.078;11.516;2022-11-14T13:12:56;28.40;;;0.80;;
3817;SDS011;1924;48.078;11.516;2022-11-14T13:18:54;28.40;;;0.80;;
3817;SDS011;1924;48.078;11.516;2022-11-14T13:25:19;28.33;;;0.80;;
3817;SDS011;1924;48.078;11.516;2022-11-14T13:27:48;28.50;;;0.80;;
3817;SDS011;1924;48.078;11.516;2022-11-14T13:30:19;28.40;;;0.80;;
3817;SDS011;1924;48.078;11.516;2022-11-14T13:33:40;28.30;;;0.80;;
3817;SDS011;1924;48.078;11.516;2022-11-14T13:36:08;28.40;;;0.80;;
3817;SDS011;1924;48.078;11.516;2022-11-14T13:39:02;28.30;;;0.80;;
3817;SDS011;1924;48.078;11.516;2022-11-14T13:44:49;28.40;;;0.80;;
3817;SDS011;1924;48.078;11.516;2022-11-14T13:47:33;28.40;;;0.80;;
3817;SDS011;1924;48.078;11.516;2022-11-14T13:50:17;28.30;;;0.80;;
3817;SDS011;1924;48.078;11.516;2022-11-14T13:52:50;28.20;;;0.80;;
3817;SDS011;1924;48.078;11.516;2022-11-14T13:55:18;28.37;;;0.80;;
3817;SDS011;1924;48.078;11.516;2022-11-14T13:57:51;28.40;;;0.80;;
3817;SDS011;1924;48.078;11.516;2022-11-14T14:00:27;28.50;;;0.80;;
3817;SDS011;1924;48.078;11.516;2022-11-14T14:03:10;28.27;;;0.80;;
3817;SDS011;1924;48.078;11.516;2022-11-14T14:05:54;28.30;;;0.80;;
3817;SDS011;1924;48.078;11.516;2022-11-14T14:08:33;28.40;;;0.80;;
3817;SDS011;1924;48.078;11.516;2022-11-14T14:11:31;28.30;;;0.80;;
3817;SDS011;1924;48.078;11.516;2022-11-14T14:14:14;28.40;;;0.80;;
3817;SDS011;1924;48.078;11.516;2022-11-14T14:16:57;28.40;;;0.80;;
3817;SDS011;1924;48.078;11.516;2022-11-14T14:19:32;28.30;;;0.80;;
3817;SDS011;1924;48.078;11.516;2022-11-14T14:22:10;28.30;;;0.80;;
3817;SDS011;1924;48.078;11.516;2022-11-14T14:24:46;28.30;;;0.80;;
3817;SDS011;1924;48.078;11.516;2022-11-14T14:27:22;28.30;;;0.80;;
3817;SDS011;1924;48.078;11.516;2022-11-14T14:29:58;28.30;;;0.80;;
3817;SDS011;1924;48.078;11.516;2022-11-14T14:32:32;28.20;;;0.80;;
3817;SDS011;1924;48.078;11.516;2022-11-14T14:34:59;28.03;;;0.80;;
3817;SDS011;1924;48.078;11.516;2022-11-14T14:37:48;28.20;;;0.80;;
3817;SDS011;1924;48.078;11.516;2022-11-14T14:40:21;28.10;;;0.80;;
3817;SDS011;1924;48.078;11.516;2022-11-14T14:42:49;28.23;;;0.80;;
3817;SDS011;1924;48.078;11.516;2022-11-14T14:45:18;28.20;;;0.80;;
3817;SDS011;1924;48.078;11.516;2022-11-14T14:47:47;28.10;;;0.73;;
3817;SDS011;1924;48.078;11.516;2022-11-14T14:50:18;28.20;;;0.80;;
3817;SDS011;1924;48.078;11.516;2022-11-14T14:52:53;28.20;;;0.80;;
3817;SDS011;1924;48.078;11.516;2022-11-14T14:55:22;28.27;;;0.80;;
3817;SDS011;1924;48.078;11.516;2022-11-14T14:57:51;28.30;;;0.80;;
3817;SDS011;1924;48.078;11.516;2022-11-14T15:00:21;28.30;;;0.80;;
3817;SDS011;1924;48.078;11.516;2022-11-14T15:02:51;28.30;;;0.80;;
3817;SDS011;1924;48.078;11.516;2022-11-14T15:05:22;28.40;;;0.80;;
3817;SDS011;1924;48.078;11.516;2022-11-14T15:07:51;28.30;;;0.80;;
3817;SDS011;1924;48.078;11.516;2022-11-14T15:10:21;28.40;;;0.80;;
3817;SDS011;1924;48.078;11.516;2022-11-14T15:12:50;28.30;;;0.80;;
3817;SDS011;1924;48.078;11.516;2022-11-14T15:15:19;28.30;;;0.80;;
3817;SDS011;1924;48.078;11.516;2022-11-14T15:17:50;28.30;;;0.80;;
3817;SDS011;1924;48.078;11.516;2022-11-14T15:20:19;28.50;;;0.80;;
3817;SDS011;1924;48.078;11.516;2022-11-14T15:23:04;28.30;;;0.80;;
3817;SDS011;1924;48.078;11.516;2022-11-14T15:25:42;28.20;;;0.80;;
3817;SDS011;1924;48.078;11.516;2022-11-14T15:28:13;28.30;;;0.80;;
3817;SDS011;1924;48.078;11.516;2022-11-14T15:30:53;28.40;;;0.80;;
3817;SDS011;1924;48.078;11.516;2022-11-14T15:33:25;28.50;;;0.80;;
3817;SDS011;1924;48.078;11.516;2022-11-14T15:36:03;28.40;;;0.80;;
3817;SDS011;1924;48.078;11.516;2022-11-14T15:38:32;28.47;;;0.80;;
3817;SDS011;1924;48.078;11.516;2022-11-14T15:41:09;28.40;;;0.80;;
3817;SDS011;1924;48.078;11.516;2022-11-14T15:43:45;28.47;;;0.80;;